sensor_id;sensor_type;location;lat;lon;timestamp;P1;durP1;ratioP1;P2;durP2;ratioP2
75297;SDS011;63896;45.990;18.688;2023-06-14T00:01:51;8.80;;;4.85;;
75297;SDS011;63896;45.990;18.688;2023-06-14T00:04:54;9.98;;;4.53;;
75297;SDS011;63896;45.990;18.688;2023-06-14T00:07:56;7.55;;;4.82;;
75297;SDS011;63896;45.990;18.688;2023-06-14T00:11:02;9.98;;;4.22;;
75297;SDS011;63896;45.990;18.688;2023-06-14T00:14:05;8.37;;;4.87;;
75297;SDS011;63896;45.990;18.688;2023-06-14T00:17:08;7.07;;;4.75;;
75297;SDS011;63896;45.990;18.688;2023-06-14T00:20:12;6.82;;;4.55;;
75297;SDS011;63896;45.990;18.688;2023-06-14T00:23:14;7.20;;;4.53;;
75297;SDS011;63896;45.990;18.688;2023-06-14T00:26:17;8.77;;;4.85;;
75297;SDS011;63896;45.990;18.688;2023-06-14T00:29:20;6.27;;;4.43;;
75297;SDS011;63896;45.990;18.688;2023-06-14T00:32:23;10.65;;;5.20;;
75297;SDS011;63896;45.990;18.688;2023-06-14T00:35:30;6.68;;;4.70;;
75297;SDS011;63896;45.990;18.688;2023-06-14T00:38:33;6.65;;;4.40;;
75297;SDS011;63896;45.990;18.688;2023-06-14T00:41:36;9.02;;;4.78;;
75297;SDS011;63896;45.990;18.688;2023-06-14T00:44:40;10.77;;;4.40;;
75297;SDS011;63896;45.990;18.688;2023-06-14T00:47:43;7.78;;;4.55;;
75297;SDS011;63896;45.990;18.688;2023-06-14T00:50:49;6.57;;;4.30;;
75297;SDS011;63896;45.990;18.688;2023-06-14T00:53:53;6.35;;;4.40;;
75297;SDS011;63896;45.990;18.688;2023-06-14T00:56:56;5.32;;;3.83;;
75297;SDS011;63896;45.990;18.688;2023-06-14T00:59:59;5.87;;;4.07;;
75297;SDS011;63896;45.990;18.688;2023-06-14T01:03:02;7.75;;;4.22;;
75297;SDS011;63896;45.990;18.688;2023-06-14T01:06:19;6.63;;;4.18;;
75297;SDS011;63896;45.990;18.688;2023-06-14T01:16:10;6.93;;;3.90;;
75297;SDS011;63896;45.990;18.688;2023-06-14T01:19:14;5.78;;;3.85;;
75297;SDS011;63896;45.990;18.688;2023-06-14T01:22:18;8.35;;;4.20;;
75297;SDS011;63896;45.990;18.688;2023-06-14T01:25:22;6.88;;;4.40;;
75297;SDS011;63896;45.990;18.688;2023-06-14T01:28:25;7.57;;;3.80;;
75297;SDS011;63896;45.990;18.688;2023-06-14T01:31:34;7.30;;;4.10;;
75297;SDS011;63896;45.990;18.688;2023-06-14T01:34:44;7.55;;;4.43;;
75297;SDS011;63896;45.990;18.688;2023-06-14T01:37:47;7.18;;;4.15;;
75297;SDS011;63896;45.990;18.688;2023-06-14T01:40:51;9.13;;;4.53;;
75297;SDS011;63896;45.990;18.688;2023-06-14T01:43:56;7.63;;;3.92;;
75297;SDS011;63896;45.990;18.688;2023-06-14T01:47:00;8.03;;;3.90;;
75297;SDS011;63896;45.990;18.688;2023-06-14T01:50:04;6.60;;;4.30;;
75297;SDS011;63896;45.990;18.688;2023-06-14T01:53:08;6.22;;;3.97;;
75297;SDS011;63896;45.990;18.688;2023-06-14T01:56:12;9.65;;;4.20;;
75297;SDS011;63896;45.990;18.688;2023-06-14T01:59:15;6.63;;;4.25;;
75297;SDS011;63896;45.990;18.688;2023-06-14T02:02:18;8.57;;;4.10;;
75297;SDS011;63896;45.990;18.688;2023-06-14T02:05:21;6.88;;;4.25;;
75297;SDS011;63896;45.990;18.688;2023-06-14T02:08:24;8.98;;;4.30;;
75297;SDS011;63896;45.990;18.688;2023-06-14T02:11:27;8.25;;;4.93;;
75297;SDS011;63896;45.990;18.688;2023-06-14T02:14:30;9.38;;;4.38;;
75297;SDS011;63896;45.990;18.688;2023-06-14T02:17:33;8.60;;;3.73;;
75297;SDS011;63896;45.990;18.688;2023-06-14T02:20:40;7.15;;;4.13;;
75297;SDS011;63896;45.990;18.688;2023-06-14T02:23:43;7.85;;;3.95;;
75297;SDS011;63896;45.990;18.688;2023-06-14T02:26:46;9.48;;;4.05;;
75297;SDS011;63896;45.990;18.688;2023-06-14T02:29:49;10.45;;;4.75;;
75297;SDS011;63896;45.990;18.688;2023-06-14T02:32:55;6.10;;;4.17;;
75297;SDS011;63896;45.990;18.688;2023-06-14T02:36:01;6.43;;;4.35;;
75297;SDS011;63896;45.990;18.688;2023-06-14T02:39:05;7.55;;;4.18;;
75297;SDS011;63896;45.990;18.688;2023-06-14T02:42:08;8.10;;;3.75;;
75297;SDS011;63896;45.990;18.688;2023-06-14T02:45:11;7.82;;;4.10;;
75297;SDS011;63896;45.990;18.688;2023-06-14T02:48:14;6.53;;;3.47;;
75297;SDS011;63896;45.990;18.688;2023-06-14T02:51:17;7.68;;;3.88;;
75297;SDS011;63896;45.990;18.688;2023-06-14T02:54:20;6.70;;;4.20;;
75297;SDS011;63896;45.990;18.688;2023-06-14T02:57:23;8.40;;;3.80;;
75297;SDS011;63896;45.990;18.688;2023-06-14T03:00:26;7.93;;;4.07;;
75297;SDS011;63896;45.990;18.688;2023-06-14T03:03:31;6.83;;;4.30;;
75297;SDS011;63896;45.990;18.688;2023-06-14T03:06:35;8.23;;;4.13;;
75297;SDS011;63896;45.990;18.688;2023-06-14T03:09:39;6.82;;;4.05;;
75297;SDS011;63896;45.990;18.688;2023-06-14T03:12:45;5.55;;;3.60;;
75297;SDS011;63896;45.990;18.688;2023-06-14T03:15:49;7.50;;;3.83;;
75297;SDS011;63896;45.990;18.688;2023-06-14T03:18:56;5.67;;;3.87;;
75297;SDS011;63896;45.990;18.688;2023-06-14T03:22:03;6.82;;;3.90;;
75297;SDS011;63896;45.990;18.688;2023-06-14T03:25:07;6.22;;;3.75;;
75297;SDS011;63896;45.990;18.688;2023-06-14T03:28:14;18.15;;;3.83;;
75297;SDS011;63896;45.990;18.688;2023-06-14T03:31:17;7.65;;;3.60;;
75297;SDS011;63896;45.990;18.688;2023-06-14T03:34:22;8.93;;;3.63;;
75297;SDS011;63896;45.990;18.688;2023-06-14T03:37:25;5.70;;;3.55;;
75297;SDS011;63896;45.990;18.688;2023-06-14T03:40:28;9.57;;;4.05;;
75297;SDS011;63896;45.990;18.688;2023-06-14T03:43:36;5.07;;;3.58;;
75297;SDS011;63896;45.990;18.688;2023-06-14T03:46:39;7.30;;;3.70;;
75297;SDS011;63896;45.990;18.688;2023-06-14T03:49:42;6.80;;;3.40;;
75297;SDS011;63896;45.990;18.688;2023-06-14T03:52:47;6.80;;;3.50;;
75297;SDS011;63896;45.990;18.688;2023-06-14T03:55:52;8.13;;;3.95;;
75297;SDS011;63896;45.990;18.688;2023-06-14T03:59:17;5.50;;;3.60;;
75297;SDS011;63896;45.990;18.688;2023-06-14T04:02:20;10.60;;;4.10;;
75297;SDS011;63896;45.990;18.688;2023-06-14T04:05:23;4.60;;;3.37;;
75297;SDS011;63896;45.990;18.688;2023-06-14T04:08:30;5.00;;;3.15;;
75297;SDS011;63896;45.990;18.688;2023-06-14T04:11:33;14.63;;;3.60;;
75297;SDS011;63896;45.990;18.688;2023-06-14T04:14:38;9.68;;;3.63;;
75297;SDS011;63896;45.990;18.688;2023-06-14T04:17:44;8.02;;;3.60;;
75297;SDS011;63896;45.990;18.688;2023-06-14T04:20:47;6.53;;;3.70;;
75297;SDS011;63896;45.990;18.688;2023-06-14T04:23:50;7.10;;;3.42;;
75297;SDS011;63896;45.990;18.688;2023-06-14T04:26:58;5.53;;;3.65;;
75297;SDS011;63896;45.990;18.688;2023-06-14T04:30:02;8.20;;;3.45;;
75297;SDS011;63896;45.990;18.688;2023-06-14T04:33:11;6.90;;;2.92;;
75297;SDS011;63896;45.990;18.688;2023-06-14T04:36:14;8.13;;;3.40;;
75297;SDS011;63896;45.990;18.688;2023-06-14T04:39:22;4.68;;;3.00;;
75297;SDS011;63896;45.990;18.688;2023-06-14T04:42:25;4.72;;;3.30;;
75297;SDS011;63896;45.990;18.688;2023-06-14T04:45:34;7.30;;;3.70;;
75297;SDS011;63896;45.990;18.688;2023-06-14T04:48:40;6.78;;;3.70;;
75297;SDS011;63896;45.990;18.688;2023-06-14T04:51:46;6.67;;;3.40;;
75297;SDS011;63896;45.990;18.688;2023-06-14T04:54:53;5.28;;;3.35;;
75297;SDS011;63896;45.990;18.688;2023-06-14T04:57:59;4.90;;;3.25;;
75297;SDS011;63896;45.990;18.688;2023-06-14T05:01:03;6.68;;;3.10;;
75297;SDS011;63896;45.990;18.688;2023-06-14T05:04:07;7.40;;;3.60;;
75297;SDS011;63896;45.990;18.688;2023-06-14T05:07:10;4.47;;;3.10;;
75297;SDS011;63896;45.990;18.688;2023-06-14T05:10:13;4.95;;;3.20;;
75297;SDS011;63896;45.990;18.688;2023-06-14T05:13:17;6.93;;;3.50;;
75297;SDS011;63896;45.990;18.688;2023-06-14T05:16:21;9.70;;;3.33;;
75297;SDS011;63896;45.990;18.688;2023-06-14T05:19:25;7.82;;;3.20;;
75297;SDS011;63896;45.990;18.688;2023-06-14T05:22:29;7.80;;;3.40;;
75297;SDS011;63896;45.990;18.688;2023-06-14T05:25:32;5.45;;;3.35;;
75297;SDS011;63896;45.990;18.688;2023-06-14T05:28:35;7.38;;;3.65;;
75297;SDS011;63896;45.990;18.688;2023-06-14T05:31:38;10.32;;;3.20;;
75297;SDS011;63896;45.990;18.688;2023-06-14T05:34:42;5.10;;;3.33;;
75297;SDS011;63896;45.990;18.688;2023-06-14T05:37:46;6.87;;;3.47;;
75297;SDS011;63896;45.990;18.688;2023-06-14T05:40:50;5.82;;;3.67;;
75297;SDS011;63896;45.990;18.688;2023-06-14T05:43:54;7.32;;;3.65;;
75297;SDS011;63896;45.990;18.688;2023-06-14T05:47:24;8.75;;;3.55;;
75297;SDS011;63896;45.990;18.688;2023-06-14T05:50:33;5.50;;;2.95;;
75297;SDS011;63896;45.990;18.688;2023-06-14T05:53:36;4.20;;;2.87;;
75297;SDS011;63896;45.990;18.688;2023-06-14T05:56:42;6.32;;;3.30;;
75297;SDS011;63896;45.990;18.688;2023-06-14T05:59:47;6.68;;;3.05;;
75297;SDS011;63896;45.990;18.688;2023-06-14T06:02:50;7.20;;;3.22;;
75297;SDS011;63896;45.990;18.688;2023-06-14T06:05:57;6.28;;;3.08;;
75297;SDS011;63896;45.990;18.688;2023-06-14T06:09:01;5.97;;;2.77;;
75297;SDS011;63896;45.990;18.688;2023-06-14T06:12:07;5.88;;;2.97;;
75297;SDS011;63896;45.990;18.688;2023-06-14T06:15:12;5.63;;;3.08;;
75297;SDS011;63896;45.990;18.688;2023-06-14T06:18:17;4.95;;;3.08;;
75297;SDS011;63896;45.990;18.688;2023-06-14T06:21:23;6.15;;;3.10;;
75297;SDS011;63896;45.990;18.688;2023-06-14T06:24:26;4.27;;;3.30;;
75297;SDS011;63896;45.990;18.688;2023-06-14T06:27:30;4.82;;;2.85;;
75297;SDS011;63896;45.990;18.688;2023-06-14T06:30:33;7.78;;;2.70;;
75297;SDS011;63896;45.990;18.688;2023-06-14T06:33:36;4.85;;;2.78;;
75297;SDS011;63896;45.990;18.688;2023-06-14T06:36:53;5.85;;;2.72;;
75297;SDS011;63896;45.990;18.688;2023-06-14T06:39:58;6.00;;;2.60;;
75297;SDS011;63896;45.990;18.688;2023-06-14T06:43:05;3.72;;;2.50;;
75297;SDS011;63896;45.990;18.688;2023-06-14T06:46:38;5.65;;;3.00;;
75297;SDS011;63896;45.990;18.688;2023-06-14T06:49:46;7.15;;;2.50;;
75297;SDS011;63896;45.990;18.688;2023-06-14T06:52:50;6.45;;;2.72;;
75297;SDS011;63896;45.990;18.688;2023-06-14T06:55:53;9.27;;;2.60;;
75297;SDS011;63896;45.990;18.688;2023-06-14T06:58:56;3.42;;;2.58;;
75297;SDS011;63896;45.990;18.688;2023-06-14T07:01:59;3.65;;;2.20;;
75297;SDS011;63896;45.990;18.688;2023-06-14T07:05:02;3.90;;;2.30;;
75297;SDS011;63896;45.990;18.688;2023-06-14T07:12:23;7.83;;;2.37;;
75297;SDS011;63896;45.990;18.688;2023-06-14T07:15:26;4.15;;;2.53;;
75297;SDS011;63896;45.990;18.688;2023-06-14T07:18:29;2.72;;;2.38;;
75297;SDS011;63896;45.990;18.688;2023-06-14T07:21:35;5.53;;;2.03;;
75297;SDS011;63896;45.990;18.688;2023-06-14T07:24:44;4.55;;;2.22;;
75297;SDS011;63896;45.990;18.688;2023-06-14T07:27:47;2.83;;;1.93;;
75297;SDS011;63896;45.990;18.688;2023-06-14T07:30:51;5.50;;;2.17;;
75297;SDS011;63896;45.990;18.688;2023-06-14T07:34:01;6.32;;;2.25;;
75297;SDS011;63896;45.990;18.688;2023-06-14T07:37:10;5.80;;;2.28;;
75297;SDS011;63896;45.990;18.688;2023-06-14T07:40:16;6.00;;;2.40;;
75297;SDS011;63896;45.990;18.688;2023-06-14T07:43:19;3.73;;;2.03;;
75297;SDS011;63896;45.990;18.688;2023-06-14T07:46:27;5.78;;;2.45;;
75297;SDS011;63896;45.990;18.688;2023-06-14T07:49:32;3.92;;;2.15;;
75297;SDS011;63896;45.990;18.688;2023-06-14T07:52:35;2.75;;;2.00;;
75297;SDS011;63896;45.990;18.688;2023-06-14T07:55:38;4.28;;;2.10;;
75297;SDS011;63896;45.990;18.688;2023-06-14T08:02:58;2.70;;;1.90;;
75297;SDS011;63896;45.990;18.688;2023-06-14T08:06:03;2.15;;;1.95;;
75297;SDS011;63896;45.990;18.688;2023-06-14T08:09:07;4.85;;;2.03;;
75297;SDS011;63896;45.990;18.688;2023-06-14T08:12:10;4.90;;;2.03;;
75297;SDS011;63896;45.990;18.688;2023-06-14T08:15:13;5.47;;;1.87;;
75297;SDS011;63896;45.990;18.688;2023-06-14T08:18:17;4.10;;;1.73;;
75297;SDS011;63896;45.990;18.688;2023-06-14T08:21:20;3.67;;;2.05;;
75297;SDS011;63896;45.990;18.688;2023-06-14T08:24:23;6.90;;;2.10;;
75297;SDS011;63896;45.990;18.688;2023-06-14T08:27:32;4.47;;;2.20;;
75297;SDS011;63896;45.990;18.688;2023-06-14T08:30:34;2.07;;;1.80;;
75297;SDS011;63896;45.990;18.688;2023-06-14T08:33:37;2.72;;;2.00;;
75297;SDS011;63896;45.990;18.688;2023-06-14T08:36:46;3.40;;;2.20;;
75297;SDS011;63896;45.990;18.688;2023-06-14T08:39:49;3.60;;;1.90;;
75297;SDS011;63896;45.990;18.688;2023-06-14T08:42:53;4.28;;;2.22;;
75297;SDS011;63896;45.990;18.688;2023-06-14T08:45:58;3.90;;;1.80;;
75297;SDS011;63896;45.990;18.688;2023-06-14T08:49:16;3.30;;;2.00;;
75297;SDS011;63896;45.990;18.688;2023-06-14T08:52:19;5.78;;;1.85;;
75297;SDS011;63896;45.990;18.688;2023-06-14T08:55:35;3.10;;;1.98;;
75297;SDS011;63896;45.990;18.688;2023-06-14T08:58:45;2.28;;;2.00;;
75297;SDS011;63896;45.990;18.688;2023-06-14T09:01:53;5.67;;;2.00;;
75297;SDS011;63896;45.990;18.688;2023-06-14T09:05:13;3.38;;;1.95;;
75297;SDS011;63896;45.990;18.688;2023-06-14T09:08:17;4.28;;;2.30;;
75297;SDS011;63896;45.990;18.688;2023-06-14T09:11:21;3.92;;;2.00;;
75297;SDS011;63896;45.990;18.688;2023-06-14T09:14:26;3.55;;;2.10;;
75297;SDS011;63896;45.990;18.688;2023-06-14T09:17:36;3.13;;;2.07;;
75297;SDS011;63896;45.990;18.688;2023-06-14T09:20:40;3.30;;;1.90;;
75297;SDS011;63896;45.990;18.688;2023-06-14T09:23:45;3.08;;;2.20;;
75297;SDS011;63896;45.990;18.688;2023-06-14T09:26:50;5.30;;;2.60;;
75297;SDS011;63896;45.990;18.688;2023-06-14T09:29:53;5.28;;;2.00;;
75297;SDS011;63896;45.990;18.688;2023-06-14T09:32:57;3.17;;;2.03;;
75297;SDS011;63896;45.990;18.688;2023-06-14T09:36:04;4.22;;;2.08;;
75297;SDS011;63896;45.990;18.688;2023-06-14T09:39:11;3.42;;;2.17;;
75297;SDS011;63896;45.990;18.688;2023-06-14T09:42:20;2.92;;;2.10;;
75297;SDS011;63896;45.990;18.688;2023-06-14T09:48:58;2.53;;;2.23;;
75297;SDS011;63896;45.990;18.688;2023-06-14T09:52:02;6.68;;;1.92;;
75297;SDS011;63896;45.990;18.688;2023-06-14T09:55:13;5.78;;;2.00;;
75297;SDS011;63896;45.990;18.688;2023-06-14T10:01:48;3.50;;;2.30;;
75297;SDS011;63896;45.990;18.688;2023-06-14T10:05:31;2.43;;;2.20;;
75297;SDS011;63896;45.990;18.688;2023-06-14T10:16:56;2.65;;;1.92;;
75297;SDS011;63896;45.990;18.688;2023-06-14T10:24:32;4.93;;;2.10;;
75297;SDS011;63896;45.990;18.688;2023-06-14T10:33:09;3.05;;;2.05;;
75297;SDS011;63896;45.990;18.688;2023-06-14T10:36:31;2.10;;;1.90;;
75297;SDS011;63896;45.990;18.688;2023-06-14T10:39:40;6.10;;;2.38;;
75297;SDS011;63896;45.990;18.688;2023-06-14T10:42:51;5.00;;;2.20;;
75297;SDS011;63896;45.990;18.688;2023-06-14T10:49:37;5.38;;;2.17;;
75297;SDS011;63896;45.990;18.688;2023-06-14T10:53:27;1.92;;;1.73;;
75297;SDS011;63896;45.990;18.688;2023-06-14T10:56:49;2.92;;;2.15;;
75297;SDS011;63896;45.990;18.688;2023-06-14T11:00:09;5.10;;;2.10;;
75297;SDS011;63896;45.990;18.688;2023-06-14T11:10:36;2.20;;;2.00;;
75297;SDS011;63896;45.990;18.688;2023-06-14T11:13:42;4.72;;;2.50;;
75297;SDS011;63896;45.990;18.688;2023-06-14T11:16:48;10.90;;;2.30;;
75297;SDS011;63896;45.990;18.688;2023-06-14T11:20:07;2.78;;;2.03;;
75297;SDS011;63896;45.990;18.688;2023-06-14T11:26:53;3.75;;;2.13;;
75297;SDS011;63896;45.990;18.688;2023-06-14T11:30:01;5.82;;;2.15;;
75297;SDS011;63896;45.990;18.688;2023-06-14T11:33:09;2.03;;;1.80;;
75297;SDS011;63896;45.990;18.688;2023-06-14T11:36:13;2.25;;;1.90;;
75297;SDS011;63896;45.990;18.688;2023-06-14T11:39:23;4.50;;;2.20;;
75297;SDS011;63896;45.990;18.688;2023-06-14T11:42:30;3.88;;;2.13;;
75297;SDS011;63896;45.990;18.688;2023-06-14T11:45:33;3.83;;;2.88;;
75297;SDS011;63896;45.990;18.688;2023-06-14T11:48:40;4.70;;;2.10;;
75297;SDS011;63896;45.990;18.688;2023-06-14T11:51:44;2.30;;;2.05;;
75297;SDS011;63896;45.990;18.688;2023-06-14T11:54:47;5.38;;;2.35;;
75297;SDS011;63896;45.990;18.688;2023-06-14T11:57:51;2.95;;;2.10;;
75297;SDS011;63896;45.990;18.688;2023-06-14T12:01:05;2.60;;;2.40;;
75297;SDS011;63896;45.990;18.688;2023-06-14T12:04:08;4.13;;;2.40;;
75297;SDS011;63896;45.990;18.688;2023-06-14T12:07:12;3.95;;;2.30;;
75297;SDS011;63896;45.990;18.688;2023-06-14T12:10:19;3.03;;;2.20;;
75297;SDS011;63896;45.990;18.688;2023-06-14T12:13:22;4.22;;;2.28;;
75297;SDS011;63896;45.990;18.688;2023-06-14T12:20:21;3.80;;;2.30;;
75297;SDS011;63896;45.990;18.688;2023-06-14T12:23:26;3.42;;;2.33;;
75297;SDS011;63896;45.990;18.688;2023-06-14T12:26:29;4.13;;;2.55;;
75297;SDS011;63896;45.990;18.688;2023-06-14T12:29:31;4.57;;;2.30;;
75297;SDS011;63896;45.990;18.688;2023-06-14T12:32:34;5.30;;;2.40;;
75297;SDS011;63896;45.990;18.688;2023-06-14T12:35:37;7.80;;;2.30;;
75297;SDS011;63896;45.990;18.688;2023-06-14T12:38:40;5.07;;;2.30;;
75297;SDS011;63896;45.990;18.688;2023-06-14T12:41:43;5.28;;;1.83;;
75297;SDS011;63896;45.990;18.688;2023-06-14T12:44:46;3.45;;;2.00;;
75297;SDS011;63896;45.990;18.688;2023-06-14T12:47:49;4.00;;;2.40;;
75297;SDS011;63896;45.990;18.688;2023-06-14T12:50:52;3.27;;;2.27;;
75297;SDS011;63896;45.990;18.688;2023-06-14T12:53:55;3.10;;;2.20;;
75297;SDS011;63896;45.990;18.688;2023-06-14T12:56:58;4.20;;;2.20;;
75297;SDS011;63896;45.990;18.688;2023-06-14T13:00:01;4.95;;;2.45;;
75297;SDS011;63896;45.990;18.688;2023-06-14T13:03:05;11.38;;;2.90;;
75297;SDS011;63896;45.990;18.688;2023-06-14T13:06:08;15.03;;;2.70;;
75297;SDS011;63896;45.990;18.688;2023-06-14T13:09:11;5.65;;;2.03;;
75297;SDS011;63896;45.990;18.688;2023-06-14T13:12:15;3.85;;;2.00;;
75297;SDS011;63896;45.990;18.688;2023-06-14T13:15:18;3.03;;;1.77;;
75297;SDS011;63896;45.990;18.688;2023-06-14T13:18:21;3.60;;;2.00;;
75297;SDS011;63896;45.990;18.688;2023-06-14T13:21:24;2.40;;;1.97;;
75297;SDS011;63896;45.990;18.688;2023-06-14T13:24:27;4.35;;;1.73;;
75297;SDS011;63896;45.990;18.688;2023-06-14T13:27:32;6.60;;;2.30;;
75297;SDS011;63896;45.990;18.688;2023-06-14T13:30:35;3.55;;;1.90;;
75297;SDS011;63896;45.990;18.688;2023-06-14T13:33:37;2.60;;;2.00;;
75297;SDS011;63896;45.990;18.688;2023-06-14T13:36:40;6.77;;;1.87;;
75297;SDS011;63896;45.990;18.688;2023-06-14T13:39:43;3.45;;;1.60;;
75297;SDS011;63896;45.990;18.688;2023-06-14T13:42:46;3.17;;;2.08;;
75297;SDS011;63896;45.990;18.688;2023-06-14T13:45:49;3.45;;;2.05;;
75297;SDS011;63896;45.990;18.688;2023-06-14T13:48:52;3.58;;;2.15;;
75297;SDS011;63896;45.990;18.688;2023-06-14T13:51:55;3.97;;;1.90;;
75297;SDS011;63896;45.990;18.688;2023-06-14T13:54:58;3.17;;;1.80;;
75297;SDS011;63896;45.990;18.688;2023-06-14T13:58:02;3.75;;;1.90;;
75297;SDS011;63896;45.990;18.688;2023-06-14T14:01:08;4.53;;;1.80;;
75297;SDS011;63896;45.990;18.688;2023-06-14T14:04:11;4.15;;;2.35;;
75297;SDS011;63896;45.990;18.688;2023-06-14T14:07:14;3.63;;;2.00;;
75297;SDS011;63896;45.990;18.688;2023-06-14T14:10:17;3.50;;;1.80;;
75297;SDS011;63896;45.990;18.688;2023-06-14T14:13:22;5.10;;;1.98;;
75297;SDS011;63896;45.990;18.688;2023-06-14T14:16:25;2.97;;;2.17;;
75297;SDS011;63896;45.990;18.688;2023-06-14T14:19:28;5.03;;;2.00;;
75297;SDS011;63896;45.990;18.688;2023-06-14T14:22:31;2.87;;;1.70;;
75297;SDS011;63896;45.990;18.688;2023-06-14T14:25:34;4.57;;;1.80;;
75297;SDS011;63896;45.990;18.688;2023-06-14T14:28:36;5.10;;;2.00;;
75297;SDS011;63896;45.990;18.688;2023-06-14T14:31:39;2.42;;;2.03;;
75297;SDS011;63896;45.990;18.688;2023-06-14T14:34:42;2.58;;;1.95;;
75297;SDS011;63896;45.990;18.688;2023-06-14T14:37:46;2.60;;;1.83;;
75297;SDS011;63896;45.990;18.688;2023-06-14T14:40:50;3.03;;;1.90;;
75297;SDS011;63896;45.990;18.688;2023-06-14T14:43:53;2.75;;;2.10;;
75297;SDS011;63896;45.990;18.688;2023-06-14T14:46:56;2.75;;;2.03;;
75297;SDS011;63896;45.990;18.688;2023-06-14T14:49:59;3.65;;;2.15;;
75297;SDS011;63896;45.990;18.688;2023-06-14T14:53:04;5.80;;;2.10;;
75297;SDS011;63896;45.990;18.688;2023-06-14T14:56:07;2.33;;;1.83;;
75297;SDS011;63896;45.990;18.688;2023-06-14T14:59:10;2.88;;;2.20;;
75297;SDS011;63896;45.990;18.688;2023-06-14T15:02:13;4.05;;;2.03;;
75297;SDS011;63896;45.990;18.688;2023-06-14T15:05:16;3.05;;;1.90;;
75297;SDS011;63896;45.990;18.688;2023-06-14T15:08:19;3.67;;;2.00;;
75297;SDS011;63896;45.990;18.688;2023-06-14T15:11:22;8.18;;;3.70;;
75297;SDS011;63896;45.990;18.688;2023-06-14T15:14:25;4.80;;;2.20;;
75297;SDS011;63896;45.990;18.688;2023-06-14T15:17:28;4.25;;;2.28;;
75297;SDS011;63896;45.990;18.688;2023-06-14T15:20:32;3.67;;;2.55;;
75297;SDS011;63896;45.990;18.688;2023-06-14T15:23:34;3.93;;;2.07;;
75297;SDS011;63896;45.990;18.688;2023-06-14T15:26:37;4.18;;;1.83;;
75297;SDS011;63896;45.990;18.688;2023-06-14T15:29:43;3.20;;;1.95;;
75297;SDS011;63896;45.990;18.688;2023-06-14T15:32:50;5.82;;;1.77;;
75297;SDS011;63896;45.990;18.688;2023-06-14T15:35:53;9.70;;;3.05;;
75297;SDS011;63896;45.990;18.688;2023-06-14T15:38:56;4.17;;;2.00;;
75297;SDS011;63896;45.990;18.688;2023-06-14T15:41:59;4.00;;;2.20;;
75297;SDS011;63896;45.990;18.688;2023-06-14T15:45:02;3.95;;;2.00;;
75297;SDS011;63896;45.990;18.688;2023-06-14T15:48:05;4.32;;;2.20;;
75297;SDS011;63896;45.990;18.688;2023-06-14T15:51:09;6.47;;;2.35;;
75297;SDS011;63896;45.990;18.688;2023-06-14T15:54:12;3.00;;;2.00;;
75297;SDS011;63896;45.990;18.688;2023-06-14T15:57:15;3.08;;;1.88;;
75297;SDS011;63896;45.990;18.688;2023-06-14T16:00:17;5.50;;;1.92;;
75297;SDS011;63896;45.990;18.688;2023-06-14T16:03:21;4.10;;;2.20;;
75297;SDS011;63896;45.990;18.688;2023-06-14T16:06:25;3.40;;;2.00;;
75297;SDS011;63896;45.990;18.688;2023-06-14T16:09:28;2.40;;;1.67;;
75297;SDS011;63896;45.990;18.688;2023-06-14T16:12:31;3.88;;;2.20;;
75297;SDS011;63896;45.990;18.688;2023-06-14T16:15:34;2.80;;;2.03;;
75297;SDS011;63896;45.990;18.688;2023-06-14T16:18:37;3.20;;;1.80;;
75297;SDS011;63896;45.990;18.688;2023-06-14T16:21:40;4.28;;;2.13;;
75297;SDS011;63896;45.990;18.688;2023-06-14T16:24:43;5.27;;;1.80;;
75297;SDS011;63896;45.990;18.688;2023-06-14T16:27:46;6.85;;;2.13;;
75297;SDS011;63896;45.990;18.688;2023-06-14T16:30:48;3.20;;;2.22;;
75297;SDS011;63896;45.990;18.688;2023-06-14T16:33:52;5.78;;;1.98;;
75297;SDS011;63896;45.990;18.688;2023-06-14T16:36:58;11.80;;;2.15;;
75297;SDS011;63896;45.990;18.688;2023-06-14T16:40:01;5.00;;;1.97;;
75297;SDS011;63896;45.990;18.688;2023-06-14T16:43:05;2.10;;;1.70;;
75297;SDS011;63896;45.990;18.688;2023-06-14T16:46:08;4.15;;;1.90;;
75297;SDS011;63896;45.990;18.688;2023-06-14T16:49:11;3.67;;;2.05;;
75297;SDS011;63896;45.990;18.688;2023-06-14T16:52:14;3.08;;;2.05;;
75297;SDS011;63896;45.990;18.688;2023-06-14T16:55:17;3.17;;;2.17;;
75297;SDS011;63896;45.990;18.688;2023-06-14T16:58:20;5.68;;;2.20;;
75297;SDS011;63896;45.990;18.688;2023-06-14T17:01:23;4.85;;;2.25;;
75297;SDS011;63896;45.990;18.688;2023-06-14T17:04:27;5.85;;;2.10;;
75297;SDS011;63896;45.990;18.688;2023-06-14T17:07:29;3.15;;;2.05;;
75297;SDS011;63896;45.990;18.688;2023-06-14T17:10:32;3.13;;;1.90;;
75297;SDS011;63896;45.990;18.688;2023-06-14T17:13:35;6.43;;;1.95;;
75297;SDS011;63896;45.990;18.688;2023-06-14T17:16:38;6.45;;;2.10;;
75297;SDS011;63896;45.990;18.688;2023-06-14T17:19:42;7.95;;;2.42;;
75297;SDS011;63896;45.990;18.688;2023-06-14T17:22:44;3.53;;;2.15;;
75297;SDS011;63896;45.990;18.688;2023-06-14T17:25:47;4.27;;;2.00;;
75297;SDS011;63896;45.990;18.688;2023-06-14T17:28:50;4.00;;;2.17;;
75297;SDS011;63896;45.990;18.688;2023-06-14T17:31:54;4.35;;;2.20;;
75297;SDS011;63896;45.990;18.688;2023-06-14T17:34:57;3.08;;;2.10;;
75297;SDS011;63896;45.990;18.688;2023-06-14T17:38:00;5.63;;;2.10;;
75297;SDS011;63896;45.990;18.688;2023-06-14T17:41:03;6.50;;;2.20;;
75297;SDS011;63896;45.990;18.688;2023-06-14T17:44:11;4.95;;;2.03;;
75297;SDS011;63896;45.990;18.688;2023-06-14T17:47:14;5.32;;;2.08;;
75297;SDS011;63896;45.990;18.688;2023-06-14T17:50:36;2.58;;;2.20;;
75297;SDS011;63896;45.990;18.688;2023-06-14T17:53:41;3.42;;;2.00;;
75297;SDS011;63896;45.990;18.688;2023-06-14T17:56:44;4.33;;;2.00;;
75297;SDS011;63896;45.990;18.688;2023-06-14T17:59:47;4.00;;;1.98;;
75297;SDS011;63896;45.990;18.688;2023-06-14T18:02:50;3.78;;;2.10;;
75297;SDS011;63896;45.990;18.688;2023-06-14T18:05:53;5.88;;;2.30;;
75297;SDS011;63896;45.990;18.688;2023-06-14T18:08:56;2.83;;;1.90;;
75297;SDS011;63896;45.990;18.688;2023-06-14T18:11:59;4.47;;;2.40;;
75297;SDS011;63896;45.990;18.688;2023-06-14T18:15:02;5.35;;;2.33;;
75297;SDS011;63896;45.990;18.688;2023-06-14T18:18:06;4.50;;;2.40;;
75297;SDS011;63896;45.990;18.688;2023-06-14T18:21:08;4.72;;;2.15;;
75297;SDS011;63896;45.990;18.688;2023-06-14T18:24:12;6.63;;;2.35;;
75297;SDS011;63896;45.990;18.688;2023-06-14T18:27:15;4.80;;;2.30;;
75297;SDS011;63896;45.990;18.688;2023-06-14T18:30:17;5.75;;;2.92;;
75297;SDS011;63896;45.990;18.688;2023-06-14T18:33:21;5.00;;;2.60;;
75297;SDS011;63896;45.990;18.688;2023-06-14T18:36:24;7.50;;;2.50;;
75297;SDS011;63896;45.990;18.688;2023-06-14T18:39:27;6.43;;;2.67;;
75297;SDS011;63896;45.990;18.688;2023-06-14T18:42:30;6.47;;;2.60;;
75297;SDS011;63896;45.990;18.688;2023-06-14T18:45:33;4.00;;;2.17;;
75297;SDS011;63896;45.990;18.688;2023-06-14T18:48:37;4.35;;;2.60;;
75297;SDS011;63896;45.990;18.688;2023-06-14T18:51:41;4.30;;;2.38;;
75297;SDS011;63896;45.990;18.688;2023-06-14T18:54:43;4.95;;;2.58;;
75297;SDS011;63896;45.990;18.688;2023-06-14T18:57:47;5.57;;;2.50;;
75297;SDS011;63896;45.990;18.688;2023-06-14T19:00:50;4.22;;;2.65;;
75297;SDS011;63896;45.990;18.688;2023-06-14T19:03:53;4.85;;;2.40;;
75297;SDS011;63896;45.990;18.688;2023-06-14T19:06:56;4.00;;;2.90;;
75297;SDS011;63896;45.990;18.688;2023-06-14T19:09:59;4.28;;;2.63;;
75297;SDS011;63896;45.990;18.688;2023-06-14T19:13:02;6.60;;;2.93;;
75297;SDS011;63896;45.990;18.688;2023-06-14T19:16:05;9.50;;;2.70;;